Time;durP1;ratioP1;P1;durP2;ratioP2;P2;SDS_P1;SDS_P2;PMS_P1;PMS_P2;Temp;Humidity;BMP_temperature;BMP_pressure;BME280_temperature;BME280_humidity;BME280_pressure;Samples;Min_cycle;Max_cycle;Signal;HPM_P1;HPM_P2
2021/12/12 00:01:53;;;;;;;73.68;27.75;;;4.00;99.90;;;;;;5012393;28;20046;-80
2021/12/12 00:04:21;;;;;;;68.53;29.40;;;4.00;99.90;;;;;;5012397;28;20500;-81
2021/12/12 00:06:49;;;;;;;70.35;29.50;;;4.00;99.90;;;;;;5011250;28;20050;-80
2021/12/12 00:09:37;;;;;;;57.92;28.88;;;3.90;99.90;;;;;;4995887;28;20559;-80
2021/12/12 00:12:11;;;;;;;62.60;29.17;;;4.00;99.90;;;;;;5011288;28;20557;-80
2021/12/12 00:14:37;;;;;;;67.57;28.35;;;4.00;99.90;;;;;;5012093;28;20056;-80
2021/12/12 00:17:07;;;;;;;55.20;26.67;;;4.00;99.90;;;;;;5012132;28;20053;-80
2021/12/12 00:19:35;;;;;;;73.32;29.95;;;4.00;99.90;;;;;;5011634;28;20050;-80
2021/12/12 00:22:04;;;;;;;67.65;27.85;;;4.00;99.90;;;;;;5012033;28;20050;-80
2021/12/12 00:24:30;;;;;;;64.35;29.20;;;4.10;99.90;;;;;;5011983;28;20486;-80
2021/12/12 00:26:58;;;;;;;58.67;28.13;;;4.10;99.90;;;;;;5011269;28;20049;-80
2021/12/12 00:29:25;;;;;;;64.65;27.73;;;4.10;99.90;;;;;;5012079;28;20050;-80
2021/12/12 00:31:57;;;;;;;63.10;27.92;;;4.10;99.90;;;;;;5013966;28;20549;-80
2021/12/12 00:34:25;;;;;;;66.05;28.58;;;4.20;99.90;;;;;;5014942;28;20046;-81
2021/12/12 00:36:51;;;;;;;71.22;27.48;;;4.20;99.90;;;;;;5016941;28;20508;-81
2021/12/12 00:39:22;;;;;;;66.82;28.63;;;4.20;99.90;;;;;;5016875;28;20050;-80
2021/12/12 00:42:25;;;;;;;62.20;28.60;;;4.20;99.90;;;;;;5014853;28;20056;-80
2021/12/12 00:45:00;;;;;;;60.42;26.30;;;4.20;99.90;;;;;;4940391;29;20106;-80
2021/12/12 00:47:26;;;;;;;62.22;27.33;;;4.30;99.90;;;;;;5007900;28;20057;-80
2021/12/12 00:49:52;;;;;;;63.53;27.60;;;4.20;99.90;;;;;;5016654;28;20481;-80
2021/12/12 00:52:19;;;;;;;65.68;26.55;;;4.20;99.90;;;;;;5015699;28;20046;-80
2021/12/12 00:54:46;;;;;;;63.20;27.67;;;4.30;99.90;;;;;;5014573;28;20092;-80
2021/12/12 00:57:16;;;;;;;61.38;26.92;;;4.20;99.90;;;;;;5015486;28;20448;-80
2021/12/12 00:59:44;;;;;;;70.85;28.38;;;4.20;99.90;;;;;;5015473;28;20046;-81
2021/12/12 01:02:20;;;;;;;68.15;29.02;;;4.20;99.90;;;;;;5014392;28;20056;-80
2021/12/12 01:04:48;;;;;;;56.17;26.05;;;4.30;99.90;;;;;;5015495;28;20397;-80
2021/12/12 01:07:19;;;;;;;59.83;28.08;;;4.30;99.90;;;;;;5015180;28;20053;-79
2021/12/12 01:10:00;;;;;;;59.45;27.52;;;4.30;99.90;;;;;;5014196;28;20041;-80
2021/12/12 01:12:31;;;;;;;67.13;26.35;;;4.30;99.90;;;;;;5015038;28;20081;-80
2021/12/12 01:15:03;;;;;;;61.33;28.42;;;4.40;99.90;;;;;;5015031;28;20050;-80
2021/12/12 01:17:39;;;;;;;64.47;28.17;;;4.30;99.90;;;;;;5013831;28;20494;-80
2021/12/12 01:20:42;;;;;;;64.65;26.48;;;4.40;99.90;;;;;;5015193;28;20080;-80
2021/12/12 01:23:18;;;;;;;64.72;27.88;;;4.40;99.90;;;;;;5014190;28;20116;-80
2021/12/12 01:25:47;;;;;;;58.00;26.38;;;4.40;99.90;;;;;;5015127;28;20144;-79
2021/12/12 01:28:18;;;;;;;72.82;27.58;;;4.40;99.90;;;;;;5014834;28;20083;-79
2021/12/12 01:30:45;;;;;;;61.45;27.90;;;4.50;99.90;;;;;;5014205;28;20049;-78
2021/12/12 01:33:18;;;;;;;66.15;25.33;;;4.50;99.90;;;;;;5014843;28;20382;-78
2021/12/12 01:35:47;;;;;;;72.38;28.75;;;4.50;99.90;;;;;;5016430;28;20119;-78
2021/12/12 01:40:58;;;;;;;70.43;27.95;;;4.50;99.90;;;;;;5014605;28;20559;-78
2021/12/12 01:43:28;;;;;;;80.57;27.90;;;4.50;99.90;;;;;;5012613;28;20080;-79
2021/12/12 01:46:11;;;;;;;61.65;27.42;;;4.50;99.90;;;;;;5014086;28;20085;-78
2021/12/12 01:48:49;;;;;;;82.00;28.35;;;4.60;99.90;;;;;;5014442;28;20060;-79
2021/12/12 01:51:16;;;;;;;67.80;27.45;;;4.60;99.90;;;;;;4997435;28;20050;-79
2021/12/12 01:53:47;;;;;;;67.57;26.42;;;4.60;99.90;;;;;;5014157;28;20124;-79
2021/12/12 01:56:20;;;;;;;67.25;27.38;;;4.60;99.90;;;;;;5014503;28;20054;-79
2021/12/12 01:58:50;;;;;;;65.68;25.88;;;4.60;99.90;;;;;;5013310;28;20112;-79
2021/12/12 02:01:23;;;;;;;76.97;27.80;;;4.60;99.90;;;;;;5014478;28;20038;-79
2021/12/12 02:03:54;;;;;;;60.20;25.50;;;4.70;99.90;;;;;;5014189;28;20046;-79
2021/12/12 02:06:22;;;;;;;60.78;23.58;;;4.70;99.90;;;;;;5013222;28;20552;-79
2021/12/12 02:08:50;;;;;;;61.38;24.85;;;4.70;99.90;;;;;;5013837;28;20053;-79
2021/12/12 02:11:21;;;;;;;63.28;28.08;;;4.70;99.90;;;;;;5014189;28;20042;-79
2021/12/12 02:13:52;;;;;;;66.43;25.65;;;4.70;99.90;;;;;;5013144;28;20077;-79
2021/12/12 02:16:19;;;;;;;69.00;27.60;;;4.70;99.90;;;;;;5013684;28;20042;-79
2021/12/12 02:18:49;;;;;;;59.28;25.33;;;4.70;99.90;;;;;;4996464;28;20056;-79
2021/12/12 02:21:27;;;;;;;65.75;26.90;;;4.70;99.90;;;;;;5013979;28;20050;-79
2021/12/12 02:35:25;;;;;;;66.15;24.10;;;4.80;99.90;;;;;;5013613;28;20056;-79
2021/12/12 02:37:56;;;;;;;61.55;22.42;;;4.80;99.90;;;;;;5013382;28;20057;-80
2021/12/12 02:40:36;;;;;;;73.90;25.75;;;4.80;99.90;;;;;;5013928;28;20045;-79
2021/12/12 02:43:03;;;;;;;76.90;27.27;;;4.80;99.90;;;;;;5013451;28;20604;-79
2021/12/12 02:45:32;;;;;;;67.45;22.95;;;4.80;99.90;;;;;;5012996;28;20058;-80
2021/12/12 02:48:02;;;;;;;70.03;27.17;;;4.80;99.90;;;;;;5012436;28;20057;-79
2021/12/12 02:50:41;;;;;;;69.32;26.75;;;4.80;99.90;;;;;;5013360;28;20081;-80
2021/12/12 02:53:14;;;;;;;63.30;25.73;;;4.80;99.90;;;;;;5013299;28;20050;-80
2021/12/12 02:55:45;;;;;;;68.13;26.05;;;4.80;99.90;;;;;;5012387;28;20088;-79
2021/12/12 02:58:14;;;;;;;79.72;27.35;;;4.90;99.90;;;;;;5013227;28;20050;-80
2021/12/12 03:00:49;;;;;;;64.22;24.02;;;4.80;99.90;;;;;;5013166;28;20045;-80
2021/12/12 03:03:17;;;;;;;58.70;25.05;;;4.90;99.90;;;;;;5013136;28;20069;-80
2021/12/12 03:05:46;;;;;;;71.15;26.02;;;4.90;99.90;;;;;;4996706;28;20038;-80
2021/12/12 03:08:13;;;;;;;55.40;21.70;;;4.90;99.90;;;;;;5012179;28;20053;-79
2021/12/12 03:10:42;;;;;;;65.70;23.42;;;4.90;99.90;;;;;;4996722;28;20081;-79
2021/12/12 03:13:09;;;;;;;55.72;22.73;;;4.90;99.90;;;;;;5012770;28;20501;-80
2021/12/12 03:15:38;;;;;;;52.45;23.33;;;4.90;99.90;;;;;;5012177;28;20397;-80
2021/12/12 03:18:08;;;;;;;53.53;22.63;;;4.90;99.90;;;;;;5012828;28;20417;-80
2021/12/12 03:20:39;;;;;;;55.90;22.90;;;4.90;99.90;;;;;;5012769;28;20121;-80
2021/12/12 03:23:24;;;;;;;53.53;21.90;;;5.00;99.90;;;;;;5012171;28;20053;-80
2021/12/12 03:25:55;;;;;;;40.38;19.42;;;5.00;99.90;;;;;;5012992;28;20375;-80
2021/12/12 03:28:25;;;;;;;48.92;20.38;;;5.00;99.90;;;;;;5012778;28;20049;-80
2021/12/12 03:30:54;;;;;;;49.78;18.88;;;5.00;99.90;;;;;;4995548;28;20132;-80
2021/12/12 03:33:21;;;;;;;51.00;20.88;;;5.00;99.90;;;;;;5012615;28;20515;-79
2021/12/12 03:35:50;;;;;;;37.47;18.48;;;5.00;99.90;;;;;;4996108;28;20053;-79
2021/12/12 03:38:16;;;;;;;42.83;18.73;;;5.00;99.90;;;;;;4995679;28;20516;-79
2021/12/12 03:40:44;;;;;;;43.58;18.95;;;5.10;99.90;;;;;;5012587;28;20042;-80
2021/12/12 03:43:11;;;;;;;39.00;19.73;;;5.10;99.90;;;;;;5011724;28;20065;-80
2021/12/12 03:45:38;;;;;;;46.38;18.65;;;5.10;99.90;;;;;;5012251;28;20132;-81
2021/12/12 03:48:12;;;;;;;45.30;19.58;;;5.00;99.90;;;;;;4996139;28;20065;-81
2021/12/12 03:50:42;;;;;;;38.27;17.87;;;5.10;99.90;;;;;;5011869;28;20109;-80
2021/12/12 03:53:08;;;;;;;40.22;18.50;;;5.10;99.90;;;;;;5012397;28;20300;-80
2021/12/12 03:55:35;;;;;;;48.58;17.77;;;5.10;99.90;;;;;;5012564;28;20050;-79
2021/12/12 03:58:03;;;;;;;40.85;17.83;;;5.10;99.90;;;;;;5011448;28;20494;-80
2021/12/12 04:00:55;;;;;;;35.15;18.08;;;5.10;99.90;;;;;;5012321;28;20081;-81
2021/12/12 04:03:21;;;;;;;41.70;17.30;;;5.10;99.90;;;;;;5011802;28;20057;-79
2021/12/12 04:05:50;;;;;;;34.72;16.83;;;5.10;99.90;;;;;;5011770;28;20049;-80
2021/12/12 04:08:16;;;;;;;30.15;16.30;;;5.10;99.90;;;;;;5000206;28;20141;-80
2021/12/12 04:10:43;;;;;;;42.42;17.48;;;5.10;99.90;;;;;;5016330;28;20493;-81
2021/12/12 04:13:09;;;;;;;32.60;14.63;;;5.10;99.90;;;;;;5016404;28;20119;-80
2021/12/12 04:15:35;;;;;;;33.22;15.90;;;5.20;99.90;;;;;;5017484;28;20037;-80
2021/12/12 04:18:01;;;;;;;34.75;16.40;;;5.10;99.90;;;;;;4999622;28;20050;-80
2021/12/12 04:20:31;;;;;;;26.30;14.40;;;5.20;99.90;;;;;;4999077;28;20049;-80
2021/12/12 04:22:57;;;;;;;35.10;14.52;;;5.20;99.90;;;;;;5016004;28;20045;-80
2021/12/12 04:25:24;;;;;;;23.88;14.43;;;5.20;99.90;;;;;;5015404;28;20064;-80
2021/12/12 04:27:52;;;;;;;33.97;15.35;;;5.20;99.90;;;;;;5016041;28;20053;-80
2021/12/12 04:30:18;;;;;;;27.35;14.90;;;5.20;99.90;;;;;;5015735;28;20053;-80
2021/12/12 04:32:45;;;;;;;29.08;14.48;;;5.20;99.90;;;;;;5015188;28;20053;-79
2021/12/12 04:35:20;;;;;;;23.90;14.20;;;5.20;99.90;;;;;;5015691;28;20053;-80
2021/12/12 04:37:46;;;;;;;28.48;15.15;;;5.20;99.90;;;;;;5015691;28;20490;-81
2021/12/12 04:40:16;;;;;;;25.85;12.10;;;5.20;99.90;;;;;;5014948;28;20042;-79
2021/12/12 04:42:43;;;;;;;23.88;12.63;;;5.30;99.90;;;;;;5015486;28;20085;-80
2021/12/12 04:45:17;;;;;;;19.98;11.05;;;5.30;99.90;;;;;;5015582;28;20371;-81
2021/12/12 04:50:59;;;;;;;20.42;12.57;;;5.40;99.90;;;;;;5015861;28;20139;-80
2021/12/12 04:53:30;;;;;;;22.13;12.55;;;5.40;99.90;;;;;;5014608;28;20054;-79
2021/12/12 04:56:05;;;;;;;24.23;13.02;;;5.40;99.90;;;;;;5015676;28;20056;-80
2021/12/12 04:59:00;;;;;;;21.27;11.15;;;5.40;99.90;;;;;;5015376;28;20054;-81
2021/12/12 05:01:34;;;;;;;21.65;10.25;;;5.40;99.90;;;;;;5014492;28;20077;-80
2021/12/12 05:04:13;;;;;;;23.15;11.93;;;5.40;99.90;;;;;;5015544;28;20057;-80
2021/12/12 05:06:49;;;;;;;16.42;11.52;;;5.40;99.90;;;;;;5015293;28;20042;-80
2021/12/12 05:09:25;;;;;;;18.60;10.95;;;5.50;99.90;;;;;;5014328;28;20081;-80
2021/12/12 05:12:03;;;;;;;20.70;10.38;;;5.50;99.90;;;;;;5015285;28;20052;-79
2021/12/12 05:14:38;;;;;;;21.38;11.35;;;5.50;99.90;;;;;;5014275;28;20126;-80
2021/12/12 05:17:04;;;;;;;;;;;5.50;99.90;;;;;;5016017;28;20054;-80
2021/12/12 05:19:31;;;;;;;16.88;9.73;;;5.50;99.90;;;;;;4997829;28;19921;-80
2021/12/12 05:22:07;;;;;;;23.15;10.75;;;5.50;99.90;;;;;;5014026;28;20587;-79
2021/12/12 05:24:36;;;;;;;19.05;11.85;;;5.50;99.90;;;;;;5014862;28;20049;-80
2021/12/12 05:27:24;;;;;;;19.35;10.00;;;5.60;99.90;;;;;;5015057;28;20054;-79
2021/12/12 05:30:19;;;;;;;18.70;10.43;;;5.60;99.90;;;;;;4997531;28;20077;-80
2021/12/12 05:32:46;;;;;;;;;;;5.70;99.90;;;;;;5015067;28;20508;-80
2021/12/12 05:35:15;;;;;;;22.15;11.93;;;5.70;99.90;;;;;;5016062;28;20026;-81
2021/12/12 05:37:41;;;;;;;21.08;12.55;;;5.60;99.90;;;;;;5013599;28;20046;-80
2021/12/12 05:40:10;;;;;;;27.10;13.70;;;5.70;99.90;;;;;;5014410;28;20568;-80
2021/12/12 05:42:37;;;;;;;24.52;13.30;;;5.70;99.90;;;;;;5013692;28;20104;-80
2021/12/12 05:45:05;;;;;;;21.35;13.13;;;5.70;99.90;;;;;;5015616;28;20421;-80
2021/12/12 05:47:31;;;;;;;26.33;16.25;;;5.70;99.90;;;;;;5014294;28;20540;-80
2021/12/12 05:49:57;;;;;;;22.30;14.15;;;5.70;99.90;;;;;;5013757;28;20045;-80
2021/12/12 05:52:24;;;;;;;24.55;14.90;;;5.80;99.90;;;;;;5015649;28;20449;-80
2021/12/12 05:54:52;;;;;;;26.73;13.05;;;5.80;99.90;;;;;;5015532;28;20498;-80
2021/12/12 05:57:24;;;;;;;23.63;15.25;;;5.80;99.90;;;;;;5014525;28;20053;-81
2021/12/12 05:59:51;;;;;;;21.88;14.90;;;5.80;99.90;;;;;;5014438;28;20507;-81
2021/12/12 06:02:17;;;;;;;22.70;14.77;;;5.80;99.90;;;;;;5014115;28;20093;-81
2021/12/12 06:04:43;;;;;;;23.80;15.77;;;5.90;99.90;;;;;;5013194;28;20108;-80
2021/12/12 06:07:15;;;;;;;27.00;16.27;;;5.90;99.90;;;;;;5014288;28;20053;-80
2021/12/12 06:09:41;;;;;;;28.33;15.52;;;5.90;99.90;;;;;;5013923;28;20401;-81
2021/12/12 06:12:07;;;;;;;28.45;15.18;;;5.90;99.90;;;;;;5014560;28;20058;-81
2021/12/12 06:14:34;;;;;;;28.85;16.27;;;5.90;99.90;;;;;;5013773;28;20053;-81
2021/12/12 06:17:01;;;;;;;31.63;17.75;;;6.00;99.90;;;;;;4998087;28;20448;-80
2021/12/12 06:19:31;;;;;;;31.30;16.95;;;6.00;99.90;;;;;;4996831;28;20088;-80
2021/12/12 06:21:59;;;;;;;30.55;17.20;;;6.00;99.90;;;;;;5013975;28;20041;-80
2021/12/12 06:24:26;;;;;;;31.02;17.75;;;6.00;99.90;;;;;;5013764;28;20096;-81
2021/12/12 06:26:53;;;;;;;31.55;18.20;;;6.00;99.90;;;;;;5013028;28;20133;-81
2021/12/12 06:29:19;;;;;;;30.70;18.27;;;6.00;99.90;;;;;;5013245;28;20046;-80
2021/12/12 06:31:48;;;;;;;41.75;21.10;;;6.00;99.90;;;;;;4996478;28;20397;-81
2021/12/12 06:34:14;;;;;;;34.92;19.20;;;6.00;99.90;;;;;;5013426;28;20049;-80
2021/12/12 06:36:41;;;;;;;35.40;18.40;;;6.00;99.90;;;;;;5013554;28;20050;-80
2021/12/12 06:39:10;;;;;;;39.20;19.77;;;6.00;99.90;;;;;;5013897;28;20089;-80
2021/12/12 06:41:37;;;;;;;48.03;21.50;;;6.00;99.90;;;;;;5013117;28;20088;-81
2021/12/12 06:44:07;;;;;;;38.42;21.00;;;6.00;99.90;;;;;;5013371;28;20049;-81
2021/12/12 06:46:34;;;;;;;28.33;18.27;;;6.00;99.90;;;;;;5012254;28;20449;-80
2021/12/12 06:49:03;;;;;;;40.17;20.20;;;6.10;99.90;;;;;;5013656;28;20053;-80
2021/12/12 06:51:34;;;;;;;39.58;19.95;;;6.10;99.90;;;;;;5013366;28;20050;-81
2021/12/12 06:54:01;;;;;;;36.53;18.63;;;6.10;99.90;;;;;;4996234;28;20077;-80
2021/12/12 06:56:27;;;;;;;39.10;19.98;;;6.10;99.90;;;;;;5013375;28;20383;-80
2021/12/12 06:58:57;;;;;;;43.83;20.80;;;6.10;99.90;;;;;;5012937;28;20052;-80
2021/12/12 07:01:28;;;;;;;41.03;20.60;;;6.10;99.90;;;;;;5012537;28;20397;-80
2021/12/12 07:03:55;;;;;;;43.35;21.08;;;6.20;99.90;;;;;;5013367;28;20042;-80
2021/12/12 07:06:24;;;;;;;37.63;19.35;;;6.10;99.90;;;;;;5013203;28;20077;-81
2021/12/12 07:08:50;;;;;;;31.48;19.27;;;6.20;99.90;;;;;;4995609;28;20470;-80
2021/12/12 07:11:18;;;;;;;48.72;21.30;;;6.20;99.90;;;;;;5014268;28;20092;-80
2021/12/12 07:13:45;;;;;;;55.83;23.25;;;6.20;99.90;;;;;;5012741;28;20107;-81
2021/12/12 07:16:13;;;;;;;49.40;21.08;;;6.20;99.90;;;;;;5013328;28;20042;-80
2021/12/12 07:18:39;;;;;;;44.47;22.67;;;6.20;99.90;;;;;;5012763;28;20057;-81
2021/12/12 07:21:10;;;;;;;39.63;21.63;;;6.20;99.90;;;;;;5011857;28;20038;-80
2021/12/12 07:23:37;;;;;;;47.80;22.55;;;6.20;99.90;;;;;;4996396;28;20050;-80
2021/12/12 07:26:06;;;;;;;47.75;23.80;;;6.30;99.90;;;;;;5012741;28;20092;-81
2021/12/12 07:28:33;;;;;;;45.35;22.73;;;6.20;99.90;;;;;;5012196;28;20060;-81
2021/12/12 07:31:03;;;;;;;36.38;17.40;;;6.30;99.90;;;;;;5012753;28;20049;-80
2021/12/12 07:33:30;;;;;;;46.22;22.92;;;6.30;99.90;;;;;;5012709;28;20085;-81
2021/12/12 07:35:59;;;;;;;47.50;22.80;;;6.30;99.90;;;;;;5011690;28;20046;-80
2021/12/12 07:38:28;;;;;;;52.55;22.67;;;6.30;99.90;;;;;;5012577;28;20393;-81
2021/12/12 07:40:55;;;;;;;47.13;21.63;;;6.30;99.90;;;;;;5012075;28;20054;-81
2021/12/12 07:43:22;;;;;;;48.08;23.67;;;6.40;99.90;;;;;;5012935;28;20046;-80
2021/12/12 07:45:48;;;;;;;50.83;22.77;;;6.40;99.90;;;;;;5012424;28;20116;-81
2021/12/12 07:48:14;;;;;;;52.50;23.63;;;6.40;99.90;;;;;;5012414;28;20416;-81
2021/12/12 07:50:43;;;;;;;52.17;23.33;;;6.40;99.90;;;;;;5012957;28;20448;-81
2021/12/12 07:53:10;;;;;;;43.50;22.00;;;6.40;99.90;;;;;;5012427;28;20125;-80
2021/12/12 07:55:37;;;;;;;51.10;24.17;;;6.40;99.90;;;;;;5013689;28;20393;-80
2021/12/12 07:58:06;;;;;;;55.30;24.10;;;6.40;99.90;;;;;;5012578;28;20508;-80
2021/12/12 08:00:32;;;;;;;41.00;21.05;;;6.50;99.90;;;;;;5012273;28;20489;-80
2021/12/12 08:02:58;;;;;;;49.90;22.60;;;6.50;99.90;;;;;;5012311;28;20061;-80
2021/12/12 08:05:28;;;;;;;62.47;24.45;;;6.50;99.90;;;;;;4995252;28;20122;-81
2021/12/12 08:08:00;;;;;;;52.08;23.20;;;6.50;99.90;;;;;;5013671;28;20386;-80
2021/12/12 08:10:28;;;;;;;45.67;22.35;;;6.60;99.90;;;;;;5012738;28;20054;-81
2021/12/12 08:12:54;;;;;;;59.42;25.27;;;6.60;99.90;;;;;;5012158;28;20587;-81
2021/12/12 08:15:20;;;;;;;60.53;25.45;;;6.60;99.90;;;;;;4995807;28;20120;-81
2021/12/12 08:17:47;;;;;;;78.72;26.45;;;6.60;99.90;;;;;;5012429;28;20049;-81
2021/12/12 08:20:15;;;;;;;68.18;26.02;;;6.60;99.90;;;;;;5012438;28;20046;-80
2021/12/12 08:22:43;;;;;;;56.72;24.15;;;6.70;99.90;;;;;;5012444;28;20050;-80
2021/12/12 08:25:12;;;;;;;54.13;24.48;;;6.70;99.90;;;;;;5011266;28;20482;-81
2021/12/12 08:27:39;;;;;;;63.65;25.10;;;6.70;99.90;;;;;;5011977;28;20390;-80
2021/12/12 08:30:06;;;;;;;60.30;24.80;;;6.80;99.90;;;;;;4995742;28;20125;-80
2021/12/12 08:32:32;;;;;;;54.65;22.30;;;6.80;99.90;;;;;;5011347;28;20385;-80
2021/12/12 08:34:58;;;;;;;51.85;22.92;;;6.80;99.90;;;;;;5013264;28;20041;-80
2021/12/12 08:37:29;;;;;;;65.15;25.75;;;6.90;99.90;;;;;;5012055;28;20053;-81
2021/12/12 08:39:56;;;;;;;68.80;26.63;;;6.90;99.90;;;;;;5012391;28;20045;-81
2021/12/12 08:42:26;;;;;;;62.42;25.65;;;6.90;99.90;;;;;;5013116;28;20057;-81
2021/12/12 08:44:57;;;;;;;71.13;26.98;;;7.00;99.90;;;;;;5011927;28;20049;-80
2021/12/12 08:47:24;;;;;;;72.97;28.42;;;7.00;99.90;;;;;;5011067;28;20115;-80
2021/12/12 08:49:50;;;;;;;63.05;26.42;;;7.00;99.90;;;;;;5011945;28;20049;-80
2021/12/12 08:52:31;;;;;;;88.80;31.75;;;7.00;99.90;;;;;;5012923;28;20503;-80
2021/12/12 08:54:59;;;;;;;76.68;27.90;;;7.10;99.90;;;;;;5016606;28;20050;-80
2021/12/12 08:57:38;;;;;;;90.75;31.55;;;7.10;99.90;;;;;;5015240;28;20054;-81
2021/12/12 09:00:10;;;;;;;90.82;31.70;;;7.10;99.90;;;;;;5014866;28;20057;-81
2021/12/12 09:02:37;;;;;;;95.53;32.60;;;7.20;99.90;;;;;;5015605;28;20046;-80
2021/12/12 09:05:18;;;;;;;88.90;31.92;;;7.20;99.90;;;;;;5015180;28;20045;-81
2021/12/12 09:07:47;;;;;;;100.40;33.08;;;7.20;99.90;;;;;;5015879;28;20046;-80
2021/12/12 09:10:26;;;;;;;100.78;33.08;;;7.30;99.90;;;;;;4998729;28;20065;-80
2021/12/12 09:13:17;;;;;;;113.47;35.47;;;7.30;99.90;;;;;;5015220;28;20570;-80
2021/12/12 09:16:03;;;;;;;114.65;34.17;;;7.30;99.90;;;;;;5014529;28;20053;-81
2021/12/12 09:18:39;;;;;;;105.60;33.20;;;7.40;99.90;;;;;;5014936;28;20512;-80
2021/12/12 09:21:23;;;;;;;140.75;37.45;;;7.50;99.90;;;;;;5015497;28;20042;-80
2021/12/12 09:24:02;;;;;;;101.35;34.38;;;7.50;99.90;;;;;;5015105;28;20050;-80
2021/12/12 09:26:30;;;;;;;117.03;36.17;;;7.60;99.90;;;;;;5016254;28;20044;-81
2021/12/12 09:29:42;;;;;;;110.40;35.35;;;7.60;99.90;;;;;;5015189;28;20053;-81
2021/12/12 09:32:13;;;;;;;113.30;33.67;;;7.70;99.90;;;;;;5014535;28;20514;-81
2021/12/12 09:34:40;;;;;;;104.40;34.25;;;7.70;99.90;;;;;;5014630;28;20409;-80
2021/12/12 09:37:21;;;;;;;135.75;35.83;;;7.70;99.90;;;;;;5014424;28;20071;-80
2021/12/12 09:39:53;;;;;;;100.35;32.65;;;7.80;99.90;;;;;;5014695;28;20046;-80
2021/12/12 09:42:19;;;;;;;108.15;33.30;;;7.80;99.90;;;;;;4997384;28;20478;-81
2021/12/12 09:45:07;;;;;;;122.10;35.90;;;7.90;99.90;;;;;;5014656;28;20041;-81
2021/12/12 09:48:25;;;;;;;114.57;32.97;;;7.90;99.90;;;;;;5014310;28;20046;-80
2021/12/12 09:51:43;;;;;;;118.82;34.00;;;8.00;99.90;;;;;;5013576;28;20042;-81
2021/12/12 09:54:26;;;;;;;101.50;31.55;;;8.00;99.90;;;;;;4923664;29;20569;-81
2021/12/12 09:57:24;;;;;;;113.50;32.13;;;8.00;99.90;;;;;;4922489;29;20388;-80
2021/12/12 10:00:08;;;;;;;108.03;33.00;;;8.00;99.90;;;;;;5007025;28;20065;-81
2021/12/12 10:03:20;;;;;;;87.72;31.67;;;8.10;99.90;;;;;;4998168;28;20062;-80
2021/12/12 10:06:13;;;;;;;86.13;28.95;;;8.10;99.90;;;;;;4938607;29;20126;-81
2021/12/12 10:08:57;;;;;;;99.47;32.17;;;8.20;99.90;;;;;;5012897;28;20057;-80
2021/12/12 10:11:45;;;;;;;89.57;31.05;;;8.20;99.90;;;;;;5013137;28;20061;-80
2021/12/12 10:14:14;;;;;;;112.63;32.95;;;8.30;99.90;;;;;;4997620;28;20057;-80
2021/12/12 10:16:47;;;;;;;113.85;34.08;;;8.30;99.90;;;;;;5015280;28;20046;-80
2021/12/12 10:19:30;;;;;;;89.70;30.00;;;8.30;99.90;;;;;;5015259;28;20061;-80
2021/12/12 10:22:29;;;;;;;95.00;29.83;;;8.30;99.90;;;;;;5013633;28;20050;-80
2021/12/12 10:25:10;;;;;;;79.93;26.48;;;8.40;99.90;;;;;;5007666;28;20068;-80
2021/12/12 10:28:09;;;;;;;92.50;28.98;;;8.50;99.90;;;;;;5014019;28;20405;-80
2021/12/12 10:30:58;;;;;;;92.63;28.48;;;8.50;99.90;;;;;;5013522;28;20497;-79
2021/12/12 10:33:53;;;;;;;98.65;29.02;;;8.60;99.90;;;;;;4958106;28;20409;-79
2021/12/12 10:36:39;;;;;;;83.70;27.08;;;8.60;99.90;;;;;;5006530;28;20068;-80
2021/12/12 10:39:20;;;;;;;83.28;27.27;;;8.60;99.90;;;;;;5012568;28;20494;-80
2021/12/12 10:41:52;;;;;;;85.07;26.67;;;8.70;99.90;;;;;;5015114;28;20401;-80
2021/12/12 10:44:43;;;;;;;80.18;27.40;;;8.70;99.90;;;;;;5013501;28;20048;-80
2021/12/12 10:47:20;;;;;;;105.32;30.10;;;8.80;99.90;;;;;;5012317;28;20058;-81
2021/12/12 10:50:04;;;;;;;90.63;28.00;;;8.80;99.90;;;;;;5014893;28;20053;-80
2021/12/12 10:52:51;;;;;;;73.95;25.75;;;8.80;99.90;;;;;;5012692;28;20401;-80
2021/12/12 10:55:42;;;;;;;80.15;26.17;;;8.80;99.90;;;;;;5013548;28;20050;-81
2021/12/12 10:58:15;;;;;;;73.38;25.63;;;8.80;99.90;;;;;;5013219;28;20056;-81
2021/12/12 11:00:46;;;;;;;78.63;25.25;;;8.80;99.90;;;;;;5012552;28;20045;-80
2021/12/12 11:03:19;;;;;;;81.57;27.85;;;8.80;99.90;;;;;;5014239;28;20053;-80
2021/12/12 11:05:52;;;;;;;71.13;26.17;;;8.80;99.90;;;;;;5013354;28;20050;-81
2021/12/12 11:08:31;;;;;;;76.32;26.63;;;8.80;99.90;;;;;;5012182;28;20045;-80
2021/12/12 11:10:59;;;;;;;86.47;28.40;;;8.90;99.90;;;;;;5012979;28;20062;-81
2021/12/12 11:13:32;;;;;;;84.78;26.10;;;8.90;99.90;;;;;;5012180;28;20058;-81
2021/12/12 11:16:11;;;;;;;71.10;25.30;;;8.80;99.90;;;;;;5012894;28;20046;-80
2021/12/12 11:18:45;;;;;;;68.80;24.10;;;8.90;99.90;;;;;;4996316;28;20490;-80
2021/12/12 11:21:27;;;;;;;66.28;23.15;;;8.90;99.90;;;;;;5012556;28;20112;-81
2021/12/12 11:23:59;;;;;;;71.65;23.80;;;8.90;99.90;;;;;;5012931;28;20052;-80
2021/12/12 11:26:42;;;;;;;55.40;21.88;;;8.90;99.90;;;;;;5013026;28;20100;-80
2021/12/12 11:29:15;;;;;;;60.78;22.63;;;8.90;99.90;;;;;;5011938;28;20050;-80
2021/12/12 11:31:55;;;;;;;80.35;24.95;;;8.90;99.90;;;;;;5012973;28;20054;-80
2021/12/12 11:34:23;;;;;;;66.57;23.35;;;9.00;99.90;;;;;;5012219;28;20484;-80
2021/12/12 11:37:23;;;;;;;68.18;22.65;;;9.00;99.90;;;;;;5012581;28;20053;-80
2021/12/12 11:40:30;;;;;;;64.45;22.63;;;9.00;99.90;;;;;;5012811;28;20058;-80
2021/12/12 11:43:04;;;;;;;56.05;20.13;;;9.00;99.90;;;;;;4936428;29;20487;-80
2021/12/12 11:45:38;;;;;;;63.33;21.83;;;9.00;99.90;;;;;;4937140;29;20043;-80
2021/12/12 11:48:13;;;;;;;73.93;23.35;;;9.10;99.90;;;;;;4980128;28;20064;-80
2021/12/12 11:51:06;;;;;;;55.50;19.58;;;9.10;99.90;;;;;;5012492;28;20490;-80
2021/12/12 11:53:43;;;;;;;46.92;19.75;;;9.10;99.90;;;;;;4995951;28;20076;-81
2021/12/12 11:56:21;;;;;;;61.70;20.42;;;9.10;99.90;;;;;;5011844;28;20042;-81
2021/12/12 11:59:07;;;;;;;69.63;20.90;;;9.10;99.90;;;;;;5012349;28;20476;-81
2021/12/12 12:01:51;;;;;;;60.45;20.92;;;9.10;99.90;;;;;;5013711;28;20050;-81
2021/12/12 12:04:35;;;;;;;65.57;21.75;;;9.10;99.90;;;;;;4995429;28;20513;-80
2021/12/12 12:07:19;;;;;;;84.63;22.50;;;9.10;99.90;;;;;;4995939;28;20132;-81
2021/12/12 12:10:05;;;;;;;57.77;20.10;;;9.10;99.90;;;;;;4995223;28;20099;-80
2021/12/12 12:13:08;;;;;;;58.55;20.27;;;9.10;99.90;;;;;;5012283;28;20050;-81
2021/12/12 12:15:49;;;;;;;76.50;22.30;;;9.20;99.90;;;;;;5012204;28;20501;-81
2021/12/12 12:18:30;;;;;;;67.00;19.77;;;9.20;99.90;;;;;;5011252;28;20049;-81
2021/12/12 12:21:00;;;;;;;81.32;22.67;;;9.20;99.90;;;;;;5012406;28;20096;-81
2021/12/12 12:26:55;;;;;;;61.97;20.73;;;9.30;99.90;;;;;;5013411;28;20137;-80
2021/12/12 12:29:21;;;;;;;86.75;22.90;;;9.30;99.90;;;;;;5016112;28;20054;-81
2021/12/12 12:32:15;;;;;;;50.38;19.58;;;9.30;99.90;;;;;;5015290;28;20049;-80
2021/12/12 12:35:09;;;;;;;74.32;22.25;;;9.40;99.90;;;;;;4999599;28;20049;-81
2021/12/12 12:38:12;;;;;;;60.28;20.80;;;9.40;99.90;;;;;;5015021;28;20457;-81
2021/12/12 12:41:15;;;;;;;57.50;19.80;;;9.50;99.90;;;;;;4999613;28;20178;-80
2021/12/12 12:44:18;;;;;;;64.47;19.85;;;9.50;99.90;;;;;;4999382;28;20050;-80
2021/12/12 12:47:26;;;;;;;57.40;19.25;;;9.50;99.90;;;;;;5014478;28;20501;-80
2021/12/12 12:50:28;;;;;;;75.03;22.00;;;9.50;99.90;;;;;;4924599;29;20066;-80
2021/12/12 12:53:51;;;;;;;57.17;19.52;;;9.60;99.90;;;;;;5014717;28;20087;-80
2021/12/12 12:57:02;;;;;;;62.88;20.23;;;9.60;99.90;;;;;;4924494;29;20065;-80
2021/12/12 13:00:03;;;;;;;55.70;19.40;;;9.60;99.90;;;;;;4955601;28;20114;-80
2021/12/12 13:02:38;;;;;;;57.58;19.25;;;9.60;99.90;;;;;;4999083;28;20049;-80
2021/12/12 13:05:07;;;;;;;74.38;21.63;;;9.60;99.90;;;;;;4998788;28;20053;-80
2021/12/12 13:08:10;;;;;;;53.45;19.25;;;9.60;99.90;;;;;;5014472;28;20494;-80
2021/12/12 13:10:38;;;;;;;68.72;21.38;;;9.60;99.90;;;;;;5015443;28;20107;-80
2021/12/12 13:13:28;;;;;;;65.80;19.83;;;9.60;99.90;;;;;;5014495;28;20481;-80
2021/12/12 13:16:03;;;;;;;61.08;19.00;;;9.60;99.90;;;;;;5016505;28;20191;-80
2021/12/12 13:18:37;;;;;;;85.07;23.80;;;9.60;99.90;;;;;;5015066;28;20111;-80
2021/12/12 13:21:12;;;;;;;62.45;19.63;;;9.70;99.90;;;;;;5014134;28;20050;-81
2021/12/12 13:23:58;;;;;;;69.60;21.88;;;9.70;99.90;;;;;;5014930;28;20053;-81
2021/12/12 13:26:35;;;;;;;56.38;18.02;;;9.70;99.90;;;;;;4975584;28;20064;-80
2021/12/12 13:29:15;;;;;;;67.93;19.15;;;9.70;99.90;;;;;;5014166;28;20053;-80
2021/12/12 13:32:02;;;;;;;54.10;18.15;;;9.70;99.90;;;;;;5014972;28;20054;-80
2021/12/12 13:34:37;;;;;;;46.25;16.77;;;9.70;99.90;;;;;;5013835;28;20061;-80